Time;durP1;ratioP1;P1;durP2;ratioP2;P2;SDS_P1;SDS_P2;PMS_P1;PMS_P2;Temp;Humidity;BMP_temperature;BMP_pressure;BME280_temperature;BME280_humidity;BME280_pressure;Samples;Min_cycle;Max_cycle;Signal;HPM_P1;HPM_P2
2021/07/02 00:01:07;;;;;;;26.75;13.75;;;;;;;;;;5076398;28;20524;-78
2021/07/02 00:03:32;;;;;;;24.45;12.63;;;;;;;;;;5076049;28;20067;-78
2021/07/02 00:05:57;;;;;;;24.15;13.50;;;;;;;;;;5076173;28;20161;-78
2021/07/02 00:08:26;;;;;;;27.15;14.60;;;;;;;;;;5076240;28;20042;-78
2021/07/02 00:10:52;;;;;;;25.33;14.27;;;;;;;;;;5075243;28;20047;-78
2021/07/02 00:13:18;;;;;;;24.90;14.82;;;;;;;;;;5076460;28;20032;-78
2021/07/02 00:15:43;;;;;;;31.77;15.68;;;;;;;;;;5076055;28;20034;-78
2021/07/02 00:18:09;;;;;;;25.45;14.93;;;;;;;;;;5076233;28;20155;-78
2021/07/02 00:20:34;;;;;;;33.47;15.38;;;;;;;;;;5076238;28;20513;-78
2021/07/02 00:23:00;;;;;;;25.65;15.43;;;;;;;;;;5075770;28;20444;-77
2021/07/02 00:25:25;;;;;;;27.60;15.73;;;;;;;;;;5075370;28;20047;-77
2021/07/02 00:27:51;;;;;;;29.92;16.05;;;;;;;;;;5073966;28;20070;-77
2021/07/02 00:30:16;;;;;;;32.95;17.35;;;;;;;;;;5073616;28;20467;-78
2021/07/02 00:32:42;;;;;;;29.90;16.85;;;;;;;;;;5074866;28;20127;-77
2021/07/02 00:35:08;;;;;;;34.58;18.48;;;;;;;;;;5074754;28;20040;-78
2021/07/02 00:37:34;;;;;;;41.15;19.33;;;;;;;;;;5074151;28;20039;-77
2021/07/02 00:40:00;;;;;;;34.35;16.52;;;;;;;;;;5073863;28;20417;-77
2021/07/02 00:42:25;;;;;;;32.67;17.55;;;;;;;;;;5074735;28;20052;-77
2021/07/02 00:44:51;;;;;;;32.72;19.25;;;;;;;;;;5073619;28;20033;-78
2021/07/02 00:47:18;;;;;;;37.88;18.80;;;;;;;;;;5073141;28;20549;-78
2021/07/02 00:49:44;;;;;;;40.92;19.95;;;;;;;;;;5074768;28;20120;-78
2021/07/02 00:52:12;;;;;;;33.70;19.40;;;;;;;;;;5072931;28;20043;-77
2021/07/02 00:54:39;;;;;;;32.05;17.75;;;;;;;;;;5074021;28;20044;-77
2021/07/02 00:57:08;;;;;;;48.10;20.42;;;;;;;;;;5074423;28;20490;-78
2021/07/02 00:59:34;;;;;;;37.78;20.92;;;;;;;;;;5074284;28;20394;-77
2021/07/02 01:01:59;;;;;;;42.65;19.35;;;;;;;;;;5072975;28;20032;-78
2021/07/02 01:04:28;;;;;;;38.08;19.75;;;;;;;;;;5074334;28;20509;-78
2021/07/02 01:06:54;;;;;;;37.58;19.80;;;;;;;;;;5056075;28;20043;-78
2021/07/02 01:09:22;;;;;;;41.50;20.95;;;;;;;;;;5072981;28;20039;-78
2021/07/02 01:11:48;;;;;;;31.23;18.35;;;;;;;;;;5074471;28;20482;-78
2021/07/02 01:14:13;;;;;;;37.90;20.15;;;;;;;;;;5073764;28;20035;-78
2021/07/02 01:16:40;;;;;;;33.75;19.00;;;;;;;;;;5072704;28;20039;-78
2021/07/02 01:19:06;;;;;;;40.35;20.90;;;;;;;;;;5072883;28;20032;-77
2021/07/02 01:21:32;;;;;;;35.08;19.88;;;;;;;;;;5074104;28;20386;-78
2021/07/02 01:23:59;;;;;;;42.47;18.65;;;;;;;;;;5072755;28;20104;-78
2021/07/02 01:26:25;;;;;;;37.20;20.58;;;;;;;;;;5072814;28;20039;-78
2021/07/02 01:28:50;;;;;;;36.10;21.30;;;;;;;;;;5072779;28;20024;-77
2021/07/02 01:31:18;;;;;;;39.80;23.45;;;;;;;;;;5072731;28;20028;-78
2021/07/02 01:33:44;;;;;;;34.28;21.92;;;;;;;;;;5072693;28;20043;-77
2021/07/02 01:36:17;;;;;;;45.00;23.85;;;;;;;;;;5073557;28;20032;-78
2021/07/02 01:38:44;;;;;;;44.70;22.38;;;;;;;;;;5073529;28;20115;-77
2021/07/02 01:41:10;;;;;;;41.25;24.05;;;;;;;;;;5072654;28;20032;-77
2021/07/02 01:43:37;;;;;;;41.83;23.25;;;;;;;;;;5072540;28;20039;-77
2021/07/02 01:46:03;;;;;;;44.50;23.27;;;;;;;;;;5071779;28;20394;-77
2021/07/02 01:48:31;;;;;;;52.55;23.98;;;;;;;;;;5073403;28;20040;-77
2021/07/02 01:50:56;;;;;;;52.45;24.83;;;;;;;;;;5072242;28;20040;-77
2021/07/02 01:53:22;;;;;;;49.65;25.60;;;;;;;;;;5073092;28;20033;-77
2021/07/02 01:55:49;;;;;;;42.90;23.90;;;;;;;;;;5073634;28;20111;-77
2021/07/02 01:58:14;;;;;;;51.45;27.73;;;;;;;;;;5072788;28;20422;-77
2021/07/02 02:00:47;;;;;;;54.40;25.83;;;;;;;;;;5072052;28;20056;-77
2021/07/02 02:03:18;;;;;;;46.38;24.95;;;;;;;;;;5056222;28;20028;-77
2021/07/02 02:05:45;;;;;;;50.65;26.90;;;;;;;;;;5071812;28;20028;-77
2021/07/02 02:08:11;;;;;;;42.95;25.77;;;;;;;;;;5073429;28;20029;-77
2021/07/02 02:10:39;;;;;;;54.50;26.42;;;;;;;;;;5073208;28;20032;-78
2021/07/02 02:13:05;;;;;;;53.13;26.55;;;;;;;;;;5071980;28;20036;-77
2021/07/02 02:15:31;;;;;;;46.92;26.70;;;;;;;;;;5073477;28;20029;-78
2021/07/02 02:17:57;;;;;;;58.63;29.83;;;;;;;;;;5073371;28;20033;-78
2021/07/02 02:20:23;;;;;;;56.22;29.20;;;;;;;;;;5071753;28;20035;-78
2021/07/02 02:22:50;;;;;;;61.20;30.48;;;;;;;;;;5074048;28;20111;-78
2021/07/02 02:25:16;;;;;;;63.95;31.48;;;;;;;;;;5072282;28;20032;-77
2021/07/02 02:27:42;;;;;;;56.65;28.55;;;;;;;;;;5072428;28;20028;-77
2021/07/02 02:30:09;;;;;;;59.80;30.85;;;;;;;;;;5071714;28;20028;-77
2021/07/02 02:32:35;;;;;;;61.80;31.20;;;;;;;;;;5072190;28;20028;-77
2021/07/02 02:35:01;;;;;;;66.82;33.88;;;;;;;;;;5073537;28;20024;-76
2021/07/02 02:37:26;;;;;;;67.47;31.55;;;;;;;;;;5072674;28;20036;-78
2021/07/02 02:39:52;;;;;;;71.22;32.47;;;;;;;;;;5072860;28;20107;-78
2021/07/02 02:42:18;;;;;;;62.33;31.65;;;;;;;;;;5073020;28;20024;-78
2021/07/02 02:44:44;;;;;;;73.57;34.22;;;;;;;;;;5072745;28;20032;-77
2021/07/02 02:47:11;;;;;;;54.20;29.63;;;;;;;;;;5071245;28;20045;-77
2021/07/02 02:49:37;;;;;;;67.90;33.70;;;;;;;;;;5073166;28;20041;-77
2021/07/02 02:52:03;;;;;;;64.13;32.78;;;;;;;;;;5072726;28;20199;-77
2021/07/02 02:54:29;;;;;;;67.40;33.75;;;;;;;;;;5073931;28;20033;-80
2021/07/02 02:57:04;;;;;;;61.88;31.95;;;;;;;;;;5071750;28;20090;-76
2021/07/02 02:59:30;;;;;;;71.75;35.47;;;;;;;;;;5071883;28;20112;-78
2021/07/02 03:01:56;;;;;;;68.63;34.40;;;;;;;;;;5075198;28;20400;-76
2021/07/02 03:04:22;;;;;;;70.50;34.67;;;;;;;;;;5075095;28;20024;-76
2021/07/02 03:06:48;;;;;;;69.15;34.05;;;;;;;;;;5074986;28;20388;-76
2021/07/02 03:09:14;;;;;;;65.50;32.60;;;;;;;;;;5076831;28;20032;-76
2021/07/02 03:11:44;;;;;;;68.13;33.72;;;;;;;;;;5076118;28;20036;-76
2021/07/02 03:14:13;;;;;;;73.45;34.15;;;;;;;;;;5075202;28;20029;-76
2021/07/02 03:16:38;;;;;;;71.05;33.83;;;;;;;;;;5076210;28;20028;-76
2021/07/02 03:19:04;;;;;;;74.00;37.13;;;;;;;;;;5076299;28;20382;-77
2021/07/02 03:21:30;;;;;;;77.60;37.83;;;;;;;;;;5074809;28;20070;-77
2021/07/02 03:23:56;;;;;;;69.95;35.90;;;;;;;;;;5074983;28;20397;-76
2021/07/02 03:26:22;;;;;;;75.68;35.15;;;;;;;;;;5076076;28;20159;-76
2021/07/02 03:28:49;;;;;;;66.53;34.95;;;;;;;;;;5074751;28;20028;-77
2021/07/02 03:31:15;;;;;;;73.70;37.28;;;;;;;;;;5074813;28;20043;-76
2021/07/02 03:33:41;;;;;;;67.53;34.47;;;;;;;;;;5075845;28;20028;-77
2021/07/02 03:36:06;;;;;;;63.72;33.10;;;;;;;;;;5074477;28;20028;-77
2021/07/02 03:38:32;;;;;;;69.70;33.60;;;;;;;;;;5074708;28;20028;-77
2021/07/02 03:40:58;;;;;;;69.63;35.63;;;;;;;;;;5073547;28;20049;-76
2021/07/02 03:43:25;;;;;;;72.15;33.60;;;;;;;;;;5074709;28;20032;-76
2021/07/02 03:45:52;;;;;;;66.45;33.97;;;;;;;;;;5074454;28;20040;-77
2021/07/02 03:48:19;;;;;;;62.22;33.20;;;;;;;;;;5074346;28;20028;-76
2021/07/02 03:50:48;;;;;;;66.22;33.97;;;;;;;;;;5075592;28;20032;-77
2021/07/02 03:53:14;;;;;;;64.07;32.80;;;;;;;;;;5073908;28;20035;-77
2021/07/02 03:55:39;;;;;;;75.25;34.47;;;;;;;;;;5075730;28;20024;-76
2021/07/02 03:58:05;;;;;;;68.05;34.60;;;;;;;;;;5075668;28;20356;-76
2021/07/02 04:00:30;;;;;;;67.55;32.10;;;;;;;;;;5074133;28;20402;-77
2021/07/02 04:02:56;;;;;;;68.10;33.85;;;;;;;;;;5074253;28;20081;-76
2021/07/02 04:05:21;;;;;;;72.93;34.03;;;;;;;;;;5075444;28;20104;-77
2021/07/02 04:07:47;;;;;;;61.55;32.55;;;;;;;;;;5074942;28;20148;-77
2021/07/02 04:10:12;;;;;;;65.80;34.90;;;;;;;;;;5074243;28;20459;-76
2021/07/02 04:12:38;;;;;;;60.53;32.65;;;;;;;;;;5073925;28;20025;-76
2021/07/02 04:15:08;;;;;;;64.97;33.60;;;;;;;;;;5075505;28;20528;-77
2021/07/02 04:17:35;;;;;;;63.70;33.35;;;;;;;;;;5074903;28;20036;-76
2021/07/02 04:20:01;;;;;;;59.22;32.92;;;;;;;;;;5075214;28;20489;-77
2021/07/02 04:22:26;;;;;;;77.20;36.65;;;;;;;;;;5074405;28;20112;-77
2021/07/02 04:24:52;;;;;;;79.57;36.72;;;;;;;;;;5075211;28;20040;-77
2021/07/02 04:27:17;;;;;;;70.53;33.83;;;;;;;;;;5075024;28;20040;-76
2021/07/02 04:29:43;;;;;;;69.53;34.83;;;;;;;;;;5075091;28;20127;-76
2021/07/02 04:32:09;;;;;;;68.60;33.78;;;;;;;;;;5073806;28;20394;-77
2021/07/02 04:34:35;;;;;;;60.90;33.08;;;;;;;;;;5074548;28;20039;-77
2021/07/02 04:37:00;;;;;;;70.25;33.70;;;;;;;;;;5073348;28;20040;-77
2021/07/02 04:39:26;;;;;;;62.90;34.40;;;;;;;;;;5074839;28;20079;-76
2021/07/02 04:41:51;;;;;;;63.15;32.08;;;;;;;;;;5074795;28;20066;-76
2021/07/02 04:44:17;;;;;;;59.15;30.88;;;;;;;;;;5074880;28;20067;-76
2021/07/02 04:46:42;;;;;;;64.25;32.10;;;;;;;;;;5074136;28;20048;-77
2021/07/02 04:49:08;;;;;;;73.38;33.42;;;;;;;;;;5074684;28;20119;-76
2021/07/02 04:51:33;;;;;;;65.03;31.90;;;;;;;;;;5074138;28;20115;-76
2021/07/02 04:53:59;;;;;;;62.63;33.20;;;;;;;;;;5072759;28;20033;-77
2021/07/02 04:56:24;;;;;;;60.03;32.05;;;;;;;;;;5073145;28;20129;-77
2021/07/02 04:58:54;;;;;;;65.28;30.40;;;;;;;;;;5074410;28;20115;-76
2021/07/02 05:01:21;;;;;;;58.88;31.80;;;;;;;;;;5074429;28;20040;-77
2021/07/02 05:03:46;;;;;;;55.47;30.35;;;;;;;;;;5074431;28;20079;-77
2021/07/02 05:06:12;;;;;;;52.70;29.00;;;;;;;;;;5072772;28;20059;-77
2021/07/02 05:08:38;;;;;;;58.03;29.92;;;;;;;;;;5073992;28;20052;-77
2021/07/02 05:11:04;;;;;;;61.00;31.77;;;;;;;;;;5074410;28;20451;-76
2021/07/02 05:13:31;;;;;;;64.28;31.13;;;;;;;;;;5074279;28;20120;-75
2021/07/02 05:15:56;;;;;;;61.85;30.88;;;;;;;;;;5072958;28;20462;-76
2021/07/02 05:18:22;;;;;;;60.85;31.58;;;;;;;;;;5073349;28;20051;-76
2021/07/02 05:20:47;;;;;;;60.30;30.55;;;;;;;;;;5072444;28;20036;-76
2021/07/02 05:23:13;;;;;;;55.05;30.77;;;;;;;;;;5073553;28;20025;-76
2021/07/02 05:25:38;;;;;;;61.83;31.10;;;;;;;;;;5073892;28;20031;-76
2021/07/02 05:28:04;;;;;;;61.28;32.10;;;;;;;;;;5072832;28;20478;-76
2021/07/02 05:30:31;;;;;;;50.00;27.30;;;;;;;;;;5073850;28;20036;-76
2021/07/02 05:32:56;;;;;;;52.25;26.02;;;;;;;;;;5073214;28;20566;-76
2021/07/02 05:35:22;;;;;;;66.40;29.92;;;;;;;;;;5073621;28;20064;-76
2021/07/02 05:37:48;;;;;;;53.15;28.85;;;;;;;;;;5071683;28;20378;-76
2021/07/02 05:40:15;;;;;;;60.65;28.58;;;;;;;;;;5073693;28;20062;-76
2021/07/02 05:42:42;;;;;;;58.05;28.50;;;;;;;;;;5073483;28;20035;-76
2021/07/02 05:45:09;;;;;;;46.65;25.75;;;;;;;;;;5073399;28;20059;-76
2021/07/02 05:47:58;;;;;;;52.92;26.65;;;;;;;;;;5073084;28;20123;-76
2021/07/02 05:50:24;;;;;;;52.67;25.05;;;;;;;;;;5072267;28;20036;-75
2021/07/02 05:52:51;;;;;;;49.45;26.17;;;;;;;;;;5073132;28;20055;-76
2021/07/02 05:55:18;;;;;;;47.08;24.25;;;;;;;;;;5072012;28;20060;-76
2021/07/02 05:57:44;;;;;;;56.65;27.40;;;;;;;;;;5073140;28;20039;-77
2021/07/02 06:00:10;;;;;;;49.15;25.73;;;;;;;;;;5073405;28;20044;-76
2021/07/02 06:02:36;;;;;;;52.05;24.88;;;;;;;;;;5073128;28;20033;-76
2021/07/02 06:05:03;;;;;;;55.28;27.20;;;;;;;;;;5073134;28;20462;-75
2021/07/02 06:07:28;;;;;;;49.45;25.10;;;;;;;;;;5072944;28;20036;-76
2021/07/02 06:09:54;;;;;;;50.30;25.58;;;;;;;;;;5071956;28;20039;-79
2021/07/02 06:12:19;;;;;;;44.90;25.60;;;;;;;;;;5073842;28;20032;-78
2021/07/02 06:14:44;;;;;;;43.42;24.60;;;;;;;;;;5075166;28;20044;-79
2021/07/02 06:17:10;;;;;;;51.47;26.20;;;;;;;;;;5073614;28;20115;-77
2021/07/02 06:19:35;;;;;;;48.92;26.00;;;;;;;;;;5075913;28;20063;-77
2021/07/02 06:22:01;;;;;;;51.17;26.73;;;;;;;;;;5073035;28;20036;-76
2021/07/02 06:24:27;;;;;;;60.08;29.23;;;;;;;;;;5073454;28;20028;-78
2021/07/02 06:26:52;;;;;;;53.55;27.15;;;;;;;;;;5073780;28;20033;-77
2021/07/02 06:29:18;;;;;;;57.40;29.95;;;;;;;;;;5071839;28;20041;-77
2021/07/02 06:31:43;;;;;;;55.17;28.40;;;;;;;;;;5071808;28;20033;-77
2021/07/02 06:34:08;;;;;;;51.78;26.88;;;;;;;;;;5073254;28;20047;-77
2021/07/02 06:36:34;;;;;;;52.42;27.38;;;;;;;;;;5076732;28;20123;-77
2021/07/02 06:38:59;;;;;;;52.45;28.23;;;;;;;;;;5075946;28;20036;-77
2021/07/02 06:41:24;;;;;;;51.17;25.80;;;;;;;;;;5077498;28;20036;-78
2021/07/02 06:43:50;;;;;;;58.03;27.25;;;;;;;;;;5076431;28;20542;-77
2021/07/02 06:46:15;;;;;;;54.28;26.58;;;;;;;;;;5077094;28;20059;-78
2021/07/02 06:48:40;;;;;;;54.03;25.98;;;;;;;;;;5077059;28;20036;-78
2021/07/02 06:51:06;;;;;;;51.10;25.27;;;;;;;;;;5076553;28;20036;-77
2021/07/02 06:53:31;;;;;;;61.08;27.98;;;;;;;;;;5075805;28;20123;-77
2021/07/02 06:55:57;;;;;;;59.78;25.98;;;;;;;;;;5077313;28;20083;-76
2021/07/02 06:58:23;;;;;;;47.78;24.67;;;;;;;;;;5075470;28;20040;-77
2021/07/02 07:00:48;;;;;;;55.15;25.55;;;;;;;;;;5077429;28;20534;-77
2021/07/02 07:03:14;;;;;;;50.50;25.77;;;;;;;;;;5058865;28;20116;-77
2021/07/02 07:05:40;;;;;;;56.58;23.98;;;;;;;;;;5073600;28;20081;-77
2021/07/02 07:08:08;;;;;;;50.28;24.23;;;;;;;;;;5074560;28;20028;-77
2021/07/02 07:10:34;;;;;;;42.85;23.95;;;;;;;;;;5079432;28;20044;-78
2021/07/02 07:13:01;;;;;;;54.78;25.58;;;;;;;;;;5076977;28;20051;-78
2021/07/02 07:15:27;;;;;;;43.92;22.30;;;;;;;;;;5078596;28;20044;-78
2021/07/02 07:17:53;;;;;;;43.90;22.25;;;;;;;;;;5076815;28;20032;-79
2021/07/02 07:20:19;;;;;;;41.83;22.02;;;;;;;;;;5075977;28;20036;-76
2021/07/02 07:22:45;;;;;;;49.88;25.10;;;;;;;;;;5078201;28;20037;-78
2021/07/02 07:25:11;;;;;;;51.22;23.95;;;;;;;;;;5078986;28;20055;-79
2021/07/02 07:27:37;;;;;;;46.22;23.77;;;;;;;;;;5079836;28;20034;-79
2021/07/02 07:30:07;;;;;;;47.75;24.50;;;;;;;;;;5078577;28;20085;-77
2021/07/02 07:32:33;;;;;;;42.47;22.58;;;;;;;;;;5075997;28;20037;-76
2021/07/02 07:35:01;;;;;;;49.60;24.00;;;;;;;;;;5075840;28;20036;-76
2021/07/02 07:37:30;;;;;;;48.92;24.67;;;;;;;;;;5074606;28;20068;-77
2021/07/02 07:39:55;;;;;;;54.35;25.45;;;;;;;;;;5076018;28;20169;-77
2021/07/02 07:42:21;;;;;;;53.08;25.98;;;;;;;;;;5074693;28;20123;-77
2021/07/02 07:44:46;;;;;;;48.30;27.90;;;;;;;;;;5075946;28;20027;-77
2021/07/02 07:47:12;;;;;;;51.53;27.52;;;;;;;;;;5074281;28;20102;-78
2021/07/02 07:49:37;;;;;;;53.67;28.20;;;;;;;;;;5077682;28;20062;-79
2021/07/02 07:54:29;;;;;;;54.92;27.13;;;;;;;;;;5078865;28;20037;-79
2021/07/02 07:56:55;;;;;;;57.78;26.92;;;;;;;;;;5075497;28;20047;-76
2021/07/02 07:59:24;;;;;;;56.72;27.27;;;;;;;;;;5075512;28;20036;-77
2021/07/02 08:01:50;;;;;;;49.72;26.63;;;;;;;;;;5074389;28;20551;-77
2021/07/02 08:04:15;;;;;;;47.85;27.23;;;;;;;;;;5075553;28;20024;-76
2021/07/02 08:06:42;;;;;;;51.75;27.02;;;;;;;;;;5075773;28;20131;-78
2021/07/02 08:09:09;;;;;;;51.85;27.27;;;;;;;;;;5075870;28;20032;-78
2021/07/02 08:11:35;;;;;;;49.47;25.92;;;;;;;;;;5076228;28;20087;-77
2021/07/02 08:14:00;;;;;;;57.40;27.58;;;;;;;;;;5077085;28;20040;-80
2021/07/02 08:16:26;;;;;;;48.47;26.55;;;;;;;;;;5078435;28;20036;-77
2021/07/02 08:18:52;;;;;;;44.22;24.65;;;;;;;;;;5078715;28;20032;-80
2021/07/02 08:21:18;;;;;;;43.33;23.38;;;;;;;;;;5079868;28;20056;-79
2021/07/02 08:23:43;;;;;;;42.47;24.80;;;;;;;;;;5078696;28;20105;-81
2021/07/02 08:26:09;;;;;;;45.72;25.50;;;;;;;;;;5080777;28;20032;-79
2021/07/02 08:31:18;;;;;;;41.58;23.98;;;;;;;;;;5084515;28;20033;-78
2021/07/02 08:33:44;;;;;;;46.05;25.42;;;;;;;;;;5083907;28;20032;-79
2021/07/02 08:36:09;;;;;;;41.95;23.40;;;;;;;;;;5084850;28;20059;-80
2021/07/02 08:38:35;;;;;;;44.47;25.35;;;;;;;;;;5084257;28;20032;-79
2021/07/02 08:41:01;;;;;;;43.33;23.63;;;;;;;;;;5082566;28;20398;-79
2021/07/02 08:43:26;;;;;;;41.08;23.45;;;;;;;;;;5081780;28;20382;-78
2021/07/02 08:45:52;;;;;;;45.22;25.02;;;;;;;;;;5080492;28;20052;-78
2021/07/02 08:48:21;;;;;;;43.05;23.20;;;;;;;;;;5076399;28;20036;-77
2021/07/02 08:50:47;;;;;;;38.60;21.05;;;;;;;;;;5074510;28;20090;-77
2021/07/02 08:53:12;;;;;;;42.58;21.48;;;;;;;;;;5074165;28;20032;-77
2021/07/02 08:55:39;;;;;;;50.42;29.70;;;;;;;;;;5075039;28;20115;-77
2021/07/02 08:58:12;;;;;;;60.97;38.50;;;;;;;;;;5074454;28;20493;-77
2021/07/02 09:00:37;;;;;;;51.58;24.38;;;;;;;;;;5074255;28;20036;-78
2021/07/02 09:03:27;;;;;;;38.88;21.92;;;;;;;;;;5074663;28;20492;-77
2021/07/02 09:05:53;;;;;;;40.58;23.40;;;;;;;;;;5074693;28;20468;-77
2021/07/02 09:08:19;;;;;;;36.60;22.23;;;;;;;;;;5073449;28;20033;-78
2021/07/02 09:10:46;;;;;;;46.08;24.00;;;;;;;;;;5074711;28;20497;-77
2021/07/02 09:13:12;;;;;;;49.45;29.38;;;;;;;;;;5074081;28;20478;-77
2021/07/02 09:15:48;;;;;;;47.15;29.27;;;;;;;;;;5074393;28;20040;-77
2021/07/02 09:18:16;;;;;;;48.58;25.63;;;;;;;;;;5073938;28;20104;-77
2021/07/02 09:20:44;;;;;;;42.08;23.58;;;;;;;;;;5072950;28;20036;-77
2021/07/02 09:23:12;;;;;;;46.92;25.73;;;;;;;;;;5074032;28;20035;-77
2021/07/02 09:25:49;;;;;;;44.20;24.67;;;;;;;;;;5072539;28;20119;-77
2021/07/02 09:28:16;;;;;;;37.83;22.83;;;;;;;;;;5072473;28;20048;-77
2021/07/02 09:30:44;;;;;;;42.28;23.52;;;;;;;;;;5073959;28;20032;-77
2021/07/02 09:33:12;;;;;;;44.05;24.50;;;;;;;;;;5073736;28;20032;-77
2021/07/02 09:35:45;;;;;;;37.80;22.42;;;;;;;;;;5073739;28;20397;-77
2021/07/02 09:38:12;;;;;;;43.60;23.63;;;;;;;;;;5072160;28;20032;-77
2021/07/02 09:40:38;;;;;;;44.63;25.17;;;;;;;;;;5073697;28;20131;-74
2021/07/02 09:43:03;;;;;;;40.78;25.73;;;;;;;;;;5074579;28;20107;-78
2021/07/02 09:45:31;;;;;;;42.80;24.33;;;;;;;;;;5072126;28;20517;-76
2021/07/02 09:48:08;;;;;;;46.80;26.77;;;;;;;;;;5072185;28;20477;-77
2021/07/02 09:50:34;;;;;;;40.35;25.77;;;;;;;;;;5071513;28;20040;-76
2021/07/02 09:53:03;;;;;;;48.03;26.38;;;;;;;;;;5071720;28;20043;-76
2021/07/02 09:55:30;;;;;;;45.25;24.02;;;;;;;;;;5071544;28;20718;-76
2021/07/02 09:58:24;;;;;;;42.22;24.77;;;;;;;;;;5073321;28;20036;-76
2021/07/02 10:00:51;;;;;;;36.70;22.85;;;;;;;;;;5071754;28;20487;-76
2021/07/02 10:03:22;;;;;;;36.42;23.20;;;;;;;;;;5073472;28;20028;-75
2021/07/02 10:06:21;;;;;;;44.25;25.63;;;;;;;;;;5072020;28;20045;-76
2021/07/02 10:08:46;;;;;;;43.50;25.83;;;;;;;;;;5072785;28;20040;-77
2021/07/02 10:11:13;;;;;;;41.53;24.30;;;;;;;;;;5073397;28;20032;-77
2021/07/02 10:13:41;;;;;;;45.53;26.17;;;;;;;;;;5072099;28;20398;-79
2021/07/02 10:16:09;;;;;;;35.53;23.10;;;;;;;;;;5075162;28;20135;-78
2021/07/02 10:18:44;;;;;;;47.50;25.58;;;;;;;;;;5074992;28;20540;-78
2021/07/02 10:21:11;;;;;;;35.73;22.10;;;;;;;;;;5074448;28;20475;-80
2021/07/02 10:23:40;;;;;;;38.42;23.55;;;;;;;;;;5078900;28;20278;-78
2021/07/02 10:26:08;;;;;;;33.65;20.77;;;;;;;;;;5073010;28;20046;-76
2021/07/02 10:28:36;;;;;;;36.22;23.42;;;;;;;;;;5074885;28;20054;-78
2021/07/02 10:31:06;;;;;;;39.85;23.83;;;;;;;;;;5073662;28;20063;-77
2021/07/02 10:33:32;;;;;;;38.20;21.50;;;;;;;;;;5071817;28;20076;-76
2021/07/02 10:36:03;;;;;;;34.85;21.75;;;;;;;;;;5072149;28;20028;-79
2021/07/02 10:38:40;;;;;;;41.72;22.85;;;;;;;;;;5073693;28;20428;-78
2021/07/02 10:41:12;;;;;;;35.85;20.98;;;;;;;;;;5073138;28;20119;-77
2021/07/02 10:44:03;;;;;;;40.13;21.42;;;;;;;;;;5073591;28;20036;-78
2021/07/02 10:46:40;;;;;;;35.35;20.48;;;;;;;;;;5070819;28;20057;-78
2021/07/02 10:49:12;;;;;;;47.17;23.33;;;;;;;;;;5073889;28;20115;-78
2021/07/02 10:51:39;;;;;;;39.35;20.85;;;;;;;;;;5071258;28;20738;-77
2021/07/02 10:54:14;;;;;;;45.88;21.02;;;;;;;;;;5071618;28;20048;-77
2021/07/02 10:56:44;;;;;;;34.95;19.90;;;;;;;;;;5073412;28;20067;-77
2021/07/02 10:59:12;;;;;;;44.05;21.30;;;;;;;;;;5074607;28;20063;-81
2021/07/02 11:01:38;;;;;;;44.97;23.27;;;;;;;;;;5076262;28;20036;-80
2021/07/02 11:04:40;;;;;;;40.25;21.60;;;;;;;;;;5076596;28;20112;-79
2021/07/02 11:07:08;;;;;;;39.00;21.30;;;;;;;;;;5075973;28;20037;-77
2021/07/02 11:12:15;;;;;;;35.22;19.10;;;;;;;;;;5075084;28;20094;-78
2021/07/02 11:17:22;;;;;;;37.50;17.75;;;;;;;;;;5075652;28;20111;-82
2021/07/02 11:19:48;;;;;;;31.95;17.27;;;;;;;;;;5077691;28;20074;-79
2021/07/02 11:22:24;;;;;;;31.65;16.77;;;;;;;;;;5076863;28;20040;-77
2021/07/02 11:25:11;;;;;;;30.77;16.23;;;;;;;;;;5076058;28;20079;-77
2021/07/02 11:27:46;;;;;;;29.63;15.88;;;;;;;;;;5076152;28;20040;-76
2021/07/02 11:30:23;;;;;;;27.73;14.30;;;;;;;;;;5076291;28;20222;-76
2021/07/02 11:32:52;;;;;;;26.13;15.48;;;;;;;;;;5075836;28;20028;-76
2021/07/02 11:35:18;;;;;;;27.80;14.55;;;;;;;;;;5075428;28;20378;-77
2021/07/02 11:38:16;;;;;;;33.40;14.52;;;;;;;;;;5075617;28;20060;-77
2021/07/02 11:40:52;;;;;;;30.27;15.88;;;;;;;;;;5066910;28;20052;-77
2021/07/02 11:43:19;;;;;;;22.00;14.43;;;;;;;;;;5076029;28;20035;-76
2021/07/02 11:45:47;;;;;;;23.30;13.75;;;;;;;;;;5075709;28;20470;-77
2021/07/02 11:48:18;;;;;;;24.25;14.00;;;;;;;;;;5075686;28;20395;-77
2021/07/02 11:50:46;;;;;;;28.40;12.63;;;;;;;;;;5075906;28;20040;-76
2021/07/02 11:53:37;;;;;;;21.88;13.05;;;;;;;;;;5074164;28;20032;-76
2021/07/02 11:56:12;;;;;;;17.77;11.30;;;;;;;;;;5074389;28;20028;-77
2021/07/02 11:58:40;;;;;;;27.95;10.70;;;;;;;;;;5075416;28;20119;-76
2021/07/02 12:01:11;;;;;;;21.70;10.13;;;;;;;;;;5075613;28;20048;-77
2021/07/02 12:03:43;;;;;;;17.33;9.40;;;;;;;;;;5075999;28;20036;-77
2021/07/02 12:06:08;;;;;;;19.48;9.77;;;;;;;;;;5074331;28;20055;-76
2021/07/02 12:08:34;;;;;;;18.33;9.70;;;;;;;;;;5075136;28;20459;-77
2021/07/02 12:11:04;;;;;;;18.73;9.60;;;;;;;;;;5075850;28;20465;-77
2021/07/02 12:13:32;;;;;;;16.55;9.98;;;;;;;;;;5075435;28;20041;-77
2021/07/02 12:16:05;;;;;;;16.27;9.77;;;;;;;;;;5075031;28;20060;-77
2021/07/02 12:18:31;;;;;;;16.95;9.70;;;;;;;;;;5075096;28;20041;-77
2021/07/02 12:20:58;;;;;;;17.48;9.65;;;;;;;;;;5075182;28;20098;-77
2021/07/02 12:23:31;;;;;;;13.88;8.40;;;;;;;;;;5074563;28;20031;-77
2021/07/02 12:26:13;;;;;;;12.43;7.78;;;;;;;;;;5074976;28;20052;-78
2021/07/02 12:29:12;;;;;;;13.07;8.38;;;;;;;;;;5073871;28;20115;-78
2021/07/02 12:31:43;;;;;;;14.52;7.40;;;;;;;;;;5074722;28;20040;-77
2021/07/02 12:34:17;;;;;;;12.63;7.75;;;;;;;;;;5074327;28;20025;-77
2021/07/02 12:36:56;;;;;;;10.05;6.95;;;;;;;;;;5074941;28;20040;-77
2021/07/02 12:39:30;;;;;;;10.50;6.80;;;;;;;;;;5074789;28;20038;-77
2021/07/02 12:41:58;;;;;;;12.10;6.88;;;;;;;;;;5074996;28;20037;-77
2021/07/02 12:44:25;;;;;;;9.80;6.68;;;;;;;;;;5073530;28;20028;-77
2021/07/02 12:46:52;;;;;;;9.77;6.72;;;;;;;;;;5073247;28;20136;-77
2021/07/02 12:49:20;;;;;;;11.23;6.68;;;;;;;;;;5074785;28;20040;-77
2021/07/02 12:54:56;;;;;;;11.82;5.85;;;;;;;;;;5074045;28;20100;-77
2021/07/02 12:58:01;;;;;;;12.57;6.80;;;;;;;;;;5074525;28;20162;-78
2021/07/02 13:00:29;;;;;;;10.68;6.05;;;;;;;;;;5073269;28;20394;-78
2021/07/02 13:02:56;;;;;;;10.23;5.70;;;;;;;;;;5072663;28;20036;-77
2021/07/02 13:05:24;;;;;;;8.73;5.45;;;;;;;;;;5074280;28;20047;-78
2021/07/02 13:08:00;;;;;;;11.07;5.65;;;;;;;;;;5074035;28;20466;-77
2021/07/02 13:10:25;;;;;;;8.45;5.90;;;;;;;;;;5074386;28;20131;-78
2021/07/02 13:13:15;;;;;;;9.82;6.32;;;;;;;;;;5073878;28;20186;-77
2021/07/02 13:15:40;;;;;;;9.07;6.65;;;;;;;;;;5074235;28;20101;-78
2021/07/02 13:18:06;;;;;;;10.95;6.45;;;;;;;;;;5072846;28;20032;-77
2021/07/02 13:20:43;;;;;;;12.85;7.18;;;;;;;;;;5074266;28;20362;-77
2021/07/02 13:23:08;;;;;;;9.02;5.78;;;;;;;;;;5073818;28;20028;-78
2021/07/02 13:25:34;;;;;;;10.15;6.57;;;;;;;;;;5073918;28;20040;-78
2021/07/02 13:28:00;;;;;;;7.05;5.30;;;;;;;;;;5074405;28;20032;-78
2021/07/02 13:30:27;;;;;;;8.45;6.30;;;;;;;;;;5075398;28;20032;-78
2021/07/02 13:33:10;;;;;;;11.45;7.10;;;;;;;;;;5076444;28;20037;-78
2021/07/02 13:35:38;;;;;;;15.82;6.72;;;;;;;;;;5077806;28;20455;-79
2021/07/02 13:38:07;;;;;;;8.60;6.20;;;;;;;;;;5077164;28;20397;-78
2021/07/02 13:40:34;;;;;;;8.70;6.75;;;;;;;;;;5076657;28;20496;-79
2021/07/02 13:43:08;;;;;;;12.63;7.63;;;;;;;;;;5075317;28;20532;-77
2021/07/02 13:45:34;;;;;;;8.73;5.85;;;;;;;;;;5075850;28;20044;-78
2021/07/02 13:48:12;;;;;;;7.80;5.80;;;;;;;;;;5077968;28;20040;-80
2021/07/02 13:50:39;;;;;;;10.57;6.22;;;;;;;;;;5077164;28;20036;-80
2021/07/02 13:53:20;;;;;;;12.70;6.45;;;;;;;;;;5075922;28;20108;-79
2021/07/02 13:55:47;;;;;;;12.57;7.22;;;;;;;;;;5077802;28;20046;-79
2021/07/02 13:58:13;;;;;;;11.65;6.35;;;;;;;;;;5076941;28;20067;-79
2021/07/02 14:00:40;;;;;;;11.27;7.10;;;;;;;;;;5077487;28;20397;-79
2021/07/02 14:03:05;;;;;;;13.30;7.00;;;;;;;;;;5076257;28;20036;-80
2021/07/02 14:05:30;;;;;;;11.18;7.25;;;;;;;;;;5075375;28;20047;-79
2021/07/02 14:07:56;;;;;;;10.85;7.45;;;;;;;;;;5075441;28;20040;-79
2021/07/02 14:10:21;;;;;;;9.70;6.55;;;;;;;;;;5076462;28;20048;-79
2021/07/02 14:12:47;;;;;;;14.18;7.60;;;;;;;;;;5076654;28;20032;-78
2021/07/02 14:15:12;;;;;;;10.52;7.75;;;;;;;;;;5076633;28;20071;-79
2021/07/02 14:17:37;;;;;;;15.10;7.43;;;;;;;;;;5077526;28;20040;-79
2021/07/02 14:20:04;;;;;;;12.43;7.60;;;;;;;;;;5077180;28;20036;-79
2021/07/02 14:22:29;;;;;;;8.02;6.28;;;;;;;;;;5076160;28;20028;-78
2021/07/02 14:24:54;;;;;;;9.65;7.15;;;;;;;;;;5075763;28;20040;-79
2021/07/02 14:27:20;;;;;;;12.25;7.05;;;;;;;;;;5077023;28;20047;-79
2021/07/02 14:29:45;;;;;;;14.10;7.63;;;;;;;;;;5075208;28;20024;-79
2021/07/02 14:32:11;;;;;;;11.05;6.60;;;;;;;;;;5075941;28;20043;-79
2021/07/02 14:34:36;;;;;;;10.23;7.00;;;;;;;;;;5074374;28;20037;-79
2021/07/02 14:37:02;;;;;;;12.32;6.97;;;;;;;;;;5075664;28;20047;-79
2021/07/02 14:39:27;;;;;;;10.75;6.50;;;;;;;;;;5073303;28;20028;-79